createdAt,value
2018-07-27T00:00:32.622Z,21.77
2018-07-27T00:03:01.776Z,21.23
2018-07-27T00:05:30.984Z,19.30
2018-07-27T00:08:00.252Z,18.80
2018-07-27T00:10:29.726Z,15.20
2018-07-27T00:12:58.909Z,18.47
2018-07-27T00:15:28.006Z,17.57
2018-07-27T00:17:57.071Z,18.73
2018-07-27T00:20:26.383Z,17.87
2018-07-27T00:22:55.557Z,19.83
2018-07-27T00:25:25.137Z,22.43
2018-07-27T00:27:54.447Z,20.90
2018-07-27T00:30:23.589Z,19.70
2018-07-27T00:32:52.777Z,25.93
2018-07-27T00:35:21.985Z,61.83
2018-07-27T00:37:51.222Z,91.53
2018-07-27T00:40:20.698Z,101.20
2018-07-27T00:42:49.939Z,50.80
2018-07-27T00:45:19.123Z,105.23
2018-07-27T00:47:48.528Z,53.83
2018-07-27T00:50:17.725Z,49.83
2018-07-27T00:52:46.863Z,55.87
2018-07-27T00:55:16.158Z,62.00
2018-07-27T00:57:45.297Z,41.53
2018-07-27T01:00:14.521Z,63.33
2018-07-27T01:02:44.471Z,77.77
2018-07-27T01:05:13.642Z,61.43
2018-07-27T01:07:43.011Z,82.37
2018-07-27T01:10:12.222Z,79.40
2018-07-27T01:12:41.551Z,76.77
2018-07-27T01:15:10.563Z,106.63
2018-07-27T01:17:40.052Z,90.13
2018-07-27T01:20:09.311Z,80.13
2018-07-27T01:22:38.872Z,109.27
2018-07-27T01:25:08.156Z,146.70
2018-07-27T01:27:37.344Z,87.70
2018-07-27T01:30:07.238Z,119.73
2018-07-27T01:32:36.469Z,138.30
2018-07-27T01:35:05.459Z,69.17
2018-07-27T01:37:34.529Z,63.60
2018-07-27T01:40:03.681Z,72.57
2018-07-27T01:42:33.212Z,51.40
2018-07-27T01:45:02.577Z,64.23
2018-07-27T01:47:31.840Z,62.83
2018-07-27T01:50:00.271Z,57.10
2018-07-27T01:52:29.588Z,134.17
2018-07-27T01:54:58.772Z,115.87
2018-07-27T01:57:27.987Z,133.47
2018-07-27T01:59:57.220Z,145.07
2018-07-27T02:02:26.619Z,120.60
2018-07-27T02:04:55.550Z,74.77
2018-07-27T02:07:25.439Z,124.80
2018-07-27T02:09:54.876Z,258.97
2018-07-27T02:12:24.024Z,204.90
2018-07-27T02:14:53.286Z,140.03
2018-07-27T02:17:22.611Z,78.23
2018-07-27T02:19:51.873Z,81.67
2018-07-27T02:22:21.124Z,85.63
2018-07-27T02:24:50.595Z,87.43
2018-07-27T02:27:19.780Z,128.80
2018-07-27T02:29:50.044Z,139.80
2018-07-27T02:32:19.241Z,210.03
2018-07-27T02:34:48.556Z,175.97
2018-07-27T02:37:18.099Z,127.50
2018-07-27T02:39:47.240Z,91.30
2018-07-27T02:42:16.453Z,86.83
2018-07-27T02:44:45.753Z,105.40
2018-07-27T02:47:15.148Z,70.07
2018-07-27T02:49:44.609Z,76.13
2018-07-27T02:52:13.800Z,104.77
2018-07-27T02:54:43.100Z,97.90
2018-07-27T02:57:12.392Z,108.90
2018-07-27T02:59:41.548Z,98.60
2018-07-27T03:02:10.827Z,187.70
2018-07-27T03:04:40.339Z,77.87
2018-07-27T03:07:09.912Z,55.23
2018-07-27T03:09:39.136Z,79.00
2018-07-27T03:12:08.244Z,87.27
2018-07-27T03:14:37.494Z,46.87
2018-07-27T03:17:06.998Z,50.67
2018-07-27T03:19:36.164Z,63.37
2018-07-27T03:22:05.361Z,40.57
2018-07-27T03:24:34.853Z,44.90
2018-07-27T03:27:04.048Z,53.23
2018-07-27T03:29:33.208Z,43.33
2018-07-27T03:32:02.283Z,42.53
2018-07-27T03:34:31.675Z,40.70
2018-07-27T03:37:00.819Z,37.13
2018-07-27T03:39:30.144Z,36.97
2018-07-27T03:41:59.238Z,33.90
2018-07-27T03:44:28.559Z,28.73
2018-07-27T03:46:57.756Z,34.10
2018-07-27T03:49:27.063Z,32.73
2018-07-27T03:51:56.356Z,38.10
2018-07-27T03:54:25.835Z,40.60
2018-07-27T03:56:55.180Z,40.03
2018-07-27T03:59:24.577Z,47.90
2018-07-27T04:01:53.776Z,46.13
2018-07-27T04:04:23.068Z,43.90
2018-07-27T04:06:52.240Z,38.07
2018-07-27T04:09:21.780Z,46.77
2018-07-27T04:11:50.957Z,47.43
2018-07-27T04:14:20.105Z,44.60
2018-07-27T04:16:49.601Z,44.33
2018-07-27T04:19:18.821Z,45.87
2018-07-27T04:21:48.020Z,44.00
2018-07-27T04:24:17.164Z,40.00
2018-07-27T04:26:46.549Z,36.47
2018-07-27T04:29:16.228Z,41.47
2018-07-27T04:31:45.569Z,38.27
2018-07-27T04:34:14.929Z,46.10
2018-07-27T04:36:44.471Z,42.77
2018-07-27T04:39:13.735Z,40.63
2018-07-27T04:41:42.932Z,38.83
2018-07-27T04:44:12.548Z,38.73
2018-07-27T04:46:41.888Z,23.20
2018-07-27T04:49:11.328Z,21.87
2018-07-27T04:51:40.558Z,23.03
2018-07-27T04:54:09.771Z,27.73
2018-07-27T04:56:39.192Z,30.63
2018-07-27T04:59:08.375Z,33.83
2018-07-27T05:01:37.713Z,29.00
2018-07-27T05:04:06.367Z,34.73
2018-07-27T05:06:35.670Z,18.57
2018-07-27T05:09:11.705Z,18.70
2018-07-27T05:11:41.418Z,16.23
2018-07-27T05:14:10.607Z,17.53
2018-07-27T05:16:39.866Z,23.27
2018-07-27T05:19:08.970Z,24.80
2018-07-27T05:21:38.476Z,20.67
2018-07-27T05:24:07.599Z,16.83
2018-07-27T05:26:36.792Z,16.50
2018-07-27T05:29:06.126Z,15.20
2018-07-27T05:31:35.376Z,18.17
2018-07-27T05:34:04.806Z,19.53
2018-07-27T05:36:33.855Z,23.73
2018-07-27T05:39:03.485Z,24.67
2018-07-27T05:41:32.660Z,22.07
2018-07-27T05:44:01.904Z,25.27
2018-07-27T05:46:31.080Z,23.23
2018-07-27T05:49:00.005Z,20.93
2018-07-27T05:51:29.076Z,25.53
2018-07-27T05:53:58.584Z,22.47
2018-07-27T05:56:28.220Z,22.63
2018-07-27T05:58:57.620Z,21.07
2018-07-27T06:01:26.712Z,21.47
2018-07-27T06:03:56.101Z,20.27
2018-07-27T06:06:25.643Z,20.37
2018-07-27T06:08:55.364Z,20.67
2018-07-27T06:11:24.481Z,20.43
2018-07-27T06:13:53.700Z,22.10
2018-07-27T06:16:23.262Z,20.80
2018-07-27T06:18:52.560Z,21.60
2018-07-27T06:21:21.842Z,21.10
2018-07-27T06:23:51.135Z,19.33
2018-07-27T06:26:20.406Z,19.73
2018-07-27T06:28:49.561Z,21.77
2018-07-27T06:31:18.996Z,17.50
2018-07-27T06:33:48.159Z,16.63
2018-07-27T06:36:17.404Z,18.93
2018-07-27T06:38:46.808Z,21.57
2018-07-27T06:41:15.856Z,17.37
2018-07-27T06:43:45.322Z,20.40
2018-07-27T06:46:14.000Z,19.17
2018-07-27T06:48:44.345Z,19.13
2018-07-27T06:51:13.603Z,18.20
2018-07-27T06:53:42.803Z,18.87
2018-07-27T06:56:12.001Z,17.67
2018-07-27T06:58:41.159Z,18.70
2018-07-27T07:01:10.240Z,19.47
2018-07-27T07:03:39.617Z,19.37
2018-07-27T07:06:08.656Z,16.93
2018-07-27T07:08:37.943Z,16.80
2018-07-27T07:11:07.080Z,17.13
2018-07-27T07:13:36.286Z,16.67
2018-07-27T07:16:05.784Z,15.98
2018-07-27T07:18:35.006Z,15.72
2018-07-27T07:21:04.178Z,16.25
2018-07-27T07:23:33.369Z,16.37
2018-07-27T07:26:03.049Z,13.93
2018-07-27T07:28:32.051Z,15.63
2018-07-27T07:31:01.704Z,15.08
2018-07-27T07:33:30.944Z,14.87
2018-07-27T07:36:00.841Z,12.45
2018-07-27T07:38:30.139Z,13.58
2018-07-27T07:40:59.244Z,11.75
2018-07-27T07:43:28.396Z,10.70
2018-07-27T07:45:57.901Z,12.35
2018-07-27T07:48:27.661Z,11.05
2018-07-27T07:50:56.857Z,10.13
2018-07-27T07:53:26.291Z,9.65
2018-07-27T07:55:55.799Z,9.70
2018-07-27T07:58:25.039Z,10.53
2018-07-27T08:00:55.174Z,11.25
2018-07-27T08:03:24.455Z,10.60
2018-07-27T08:05:54.617Z,10.65
2018-07-27T08:08:23.941Z,10.50
2018-07-27T08:10:53.109Z,11.08
2018-07-27T08:13:22.276Z,9.65
2018-07-27T08:15:51.451Z,9.23
2018-07-27T08:18:20.961Z,8.75
2018-07-27T08:20:50.454Z,9.25
2018-07-27T08:23:19.694Z,9.18
2018-07-27T08:26:41.933Z,9.88
2018-07-27T08:29:12.047Z,9.10
2018-07-27T08:31:42.893Z,8.68
2018-07-27T08:34:13.406Z,7.97
2018-07-27T08:36:44.048Z,8.35
2018-07-27T08:39:14.859Z,8.45
2018-07-27T08:41:43.972Z,9.13
2018-07-27T08:44:14.550Z,8.63
2018-07-27T08:46:43.287Z,7.62
2018-07-27T08:49:12.300Z,8.20
2018-07-27T08:51:41.878Z,7.83
2018-07-27T08:54:10.994Z,8.73
2018-07-27T08:56:40.292Z,7.72
2018-07-27T08:59:09.676Z,7.75
2018-07-27T09:01:38.915Z,7.33
2018-07-27T09:04:08.181Z,7.75
2018-07-27T09:06:37.511Z,11.90
2018-07-27T09:09:09.814Z,8.40
2018-07-27T09:11:39.032Z,8.10
2018-07-27T09:14:08.573Z,8.55
2018-07-27T09:16:38.130Z,10.78
2018-07-27T09:19:07.868Z,9.85
2018-07-27T09:21:37.414Z,11.12
2018-07-27T09:24:06.547Z,11.15
2018-07-27T09:26:35.679Z,10.68
2018-07-27T09:29:05.501Z,11.80
2018-07-27T09:31:34.821Z,10.53
2018-07-27T09:34:04.371Z,10.38
2018-07-27T09:36:33.473Z,10.38
2018-07-27T09:39:02.891Z,11.18
2018-07-27T09:41:32.178Z,12.95
2018-07-27T09:44:01.271Z,11.48
2018-07-27T09:46:30.543Z,13.50
2018-07-27T09:48:59.954Z,14.33
2018-07-27T09:51:29.005Z,11.40
2018-07-27T09:53:58.248Z,13.45
2018-07-27T09:56:27.682Z,12.58
2018-07-27T09:58:57.083Z,11.53
2018-07-27T10:01:27.888Z,16.12
2018-07-27T10:03:57.196Z,12.03
2018-07-27T10:06:26.554Z,11.63
2018-07-27T10:08:56.185Z,13.72
2018-07-27T10:11:25.219Z,11.78
2018-07-27T10:13:54.651Z,11.35
2018-07-27T10:16:24.000Z,10.00
2018-07-27T10:18:53.275Z,14.07
2018-07-27T10:21:22.905Z,17.45
2018-07-27T10:23:52.317Z,20.70
2018-07-27T10:26:21.679Z,17.15
2018-07-27T10:28:50.883Z,10.00
2018-07-27T10:31:20.486Z,10.13
2018-07-27T10:33:49.967Z,10.05
2018-07-27T10:36:19.166Z,10.00
2018-07-27T10:38:48.515Z,10.15
2018-07-27T10:41:17.901Z,18.23
2018-07-27T10:43:47.158Z,11.08
2018-07-27T10:46:16.421Z,11.88
2018-07-27T10:48:45.945Z,16.23
2018-07-27T10:51:15.791Z,10.80
2018-07-27T10:53:45.160Z,10.18
2018-07-27T10:56:15.333Z,10.05
2018-07-27T10:58:44.713Z,9.75
2018-07-27T11:01:14.121Z,10.68
2018-07-27T11:03:43.305Z,10.18
2018-07-27T11:06:12.835Z,10.03
2018-07-27T11:08:42.276Z,11.40
2018-07-27T11:11:11.476Z,10.82
2018-07-27T11:13:40.802Z,10.00
2018-07-27T11:16:09.997Z,9.75
2018-07-27T11:18:39.351Z,12.05
2018-07-27T11:21:08.405Z,10.82
2018-07-27T11:23:37.726Z,10.58
2018-07-27T11:26:08.357Z,10.25
2018-07-27T11:28:39.248Z,11.97
2018-07-27T11:31:08.546Z,12.00
2018-07-27T11:33:37.636Z,11.63
2018-07-27T11:36:06.868Z,15.40
2018-07-27T11:38:35.520Z,12.00
2018-07-27T11:41:05.112Z,11.45
2018-07-27T11:43:34.288Z,11.45
2018-07-27T11:46:03.916Z,11.85
2018-07-27T11:48:33.009Z,10.63
2018-07-27T11:51:03.276Z,10.48
2018-07-27T11:53:31.931Z,10.80
2018-07-27T11:56:01.659Z,9.93
2018-07-27T11:58:31.882Z,10.85
2018-07-27T12:01:01.487Z,10.65
2018-07-27T12:03:31.016Z,14.28
2018-07-27T12:06:01.399Z,11.68
2018-07-27T12:08:31.544Z,12.20
2018-07-27T12:11:00.435Z,17.35
2018-07-27T12:13:29.688Z,11.22
2018-07-27T12:15:58.805Z,12.68
2018-07-27T12:18:28.285Z,12.03
2018-07-27T12:20:57.920Z,12.35
2018-07-27T12:23:26.883Z,11.38
2018-07-27T12:25:56.256Z,10.38
2018-07-27T12:28:25.653Z,11.28
2018-07-27T12:30:55.039Z,10.05
2018-07-27T12:33:23.736Z,9.68
2018-07-27T12:35:53.097Z,9.05
2018-07-27T12:38:22.165Z,12.40
2018-07-27T12:40:51.407Z,10.38
2018-07-27T12:43:20.668Z,11.85
2018-07-27T12:45:50.478Z,10.70
2018-07-27T12:48:19.543Z,9.80
2018-07-27T12:50:48.685Z,9.45
2018-07-27T12:53:17.980Z,9.85
2018-07-27T12:55:47.574Z,9.35
2018-07-27T12:58:16.908Z,8.83
2018-07-27T13:00:46.198Z,9.15
2018-07-27T13:03:15.344Z,9.08
2018-07-27T13:05:44.788Z,12.18
2018-07-27T13:08:14.152Z,8.90
2018-07-27T13:10:43.333Z,8.58
2018-07-27T13:13:13.294Z,9.58
2018-07-27T13:15:42.449Z,8.83
2018-07-27T13:18:11.681Z,9.25
2018-07-27T13:20:49.315Z,8.05
2018-07-27T13:23:18.948Z,8.93
2018-07-27T13:26:28.899Z,8.08
2018-07-27T13:28:43.988Z,13.90
2018-07-27T13:31:13.520Z,7.35
2018-07-27T13:33:59.300Z,8.15
2018-07-27T13:36:28.710Z,8.55
2018-07-27T13:38:57.839Z,7.87
2018-07-27T13:41:27.272Z,7.15
2018-07-27T13:43:56.519Z,7.58
2018-07-27T13:46:26.224Z,7.33
2018-07-27T13:48:55.425Z,6.70
2018-07-27T13:51:24.804Z,7.10
2018-07-27T13:53:54.185Z,6.28
2018-07-27T13:56:23.452Z,6.92
2018-07-27T13:58:52.822Z,7.65
2018-07-27T14:01:22.405Z,6.95
2018-07-27T14:03:51.759Z,5.75
2018-07-27T14:06:20.875Z,6.40
2018-07-27T14:08:50.814Z,6.62
2018-07-27T14:11:20.366Z,7.10
2018-07-27T14:13:49.909Z,6.42
2018-07-27T14:16:19.039Z,7.22
2018-07-27T14:18:49.093Z,6.85
2018-07-27T14:21:18.276Z,8.23
2018-07-27T14:23:47.422Z,8.10
2018-07-27T14:26:16.705Z,11.12
2018-07-27T14:28:46.215Z,8.45
2018-07-27T14:31:15.455Z,12.03
2018-07-27T14:33:44.830Z,6.58
2018-07-27T14:36:14.312Z,6.33
2018-07-27T14:38:44.002Z,6.65
2018-07-27T14:41:13.191Z,5.95
2018-07-27T14:43:42.726Z,6.40
2018-07-27T14:46:12.031Z,8.65
2018-07-27T14:48:41.480Z,6.03
2018-07-27T14:51:10.588Z,7.92
2018-07-27T14:53:45.600Z,7.60
2018-07-27T14:56:15.386Z,6.25
2018-07-27T14:58:44.630Z,6.50
2018-07-27T15:01:14.127Z,6.37
2018-07-27T15:03:43.408Z,6.30
2018-07-27T15:06:12.526Z,7.05
2018-07-27T15:08:41.539Z,7.15
2018-07-27T15:11:10.788Z,6.97
2018-07-27T15:13:39.954Z,9.18
2018-07-27T15:16:09.450Z,10.55
2018-07-27T15:18:38.648Z,7.95
2018-07-27T15:21:08.065Z,7.08
2018-07-27T15:23:37.046Z,9.43
2018-07-27T15:26:06.271Z,6.92
2018-07-27T15:28:36.017Z,8.20
2018-07-27T15:31:05.261Z,7.45
2018-07-27T15:33:34.578Z,5.90
2018-07-27T15:36:05.191Z,8.93
2018-07-27T15:38:34.425Z,7.83
2018-07-27T15:41:03.618Z,6.35
2018-07-27T15:43:32.992Z,6.67
2018-07-27T15:46:02.359Z,8.98
2018-07-27T15:48:31.572Z,7.08
2018-07-27T15:51:00.883Z,6.95
2018-07-27T15:53:30.159Z,8.95
2018-07-27T15:55:59.388Z,146.53
2018-07-27T15:58:28.874Z,9.23
2018-07-27T16:00:58.103Z,7.47
2018-07-27T16:03:27.172Z,9.50
2018-07-27T16:05:56.272Z,6.72
2018-07-27T16:08:25.527Z,7.95
2018-07-27T16:10:54.211Z,7.72
2018-07-27T16:13:23.495Z,9.55
2018-07-27T16:15:52.564Z,7.17
2018-07-27T16:18:21.719Z,7.67
2018-07-27T16:20:50.960Z,10.15
2018-07-27T16:23:20.166Z,10.55
2018-07-27T16:25:49.364Z,9.80
2018-07-27T16:28:18.795Z,8.18
2018-07-27T16:30:48.076Z,9.23
2018-07-27T16:33:17.260Z,9.73
2018-07-27T16:35:46.431Z,8.35
2018-07-27T16:38:15.689Z,8.83
2018-07-27T16:40:44.842Z,7.90
2018-07-27T16:43:14.158Z,9.83
2018-07-27T16:45:43.242Z,8.75
2018-07-27T16:48:12.465Z,11.65
2018-07-27T16:50:41.603Z,7.22
2018-07-27T16:53:11.074Z,7.50
2018-07-27T16:55:40.327Z,7.20
2018-07-27T16:58:09.841Z,8.38
2018-07-27T17:00:39.123Z,7.45
2018-07-27T17:03:09.235Z,8.53
2018-07-27T17:05:39.263Z,8.30
2018-07-27T17:08:09.416Z,8.00
2018-07-27T17:10:38.817Z,6.87
2018-07-27T17:13:08.120Z,8.03
2018-07-27T17:15:37.416Z,8.58
2018-07-27T17:18:06.601Z,8.63
2018-07-27T17:20:35.896Z,10.00
2018-07-27T17:23:05.012Z,9.88
2018-07-27T17:25:34.228Z,10.68
2018-07-27T17:28:03.389Z,11.00
2018-07-27T17:30:32.588Z,8.93
2018-07-27T17:33:02.129Z,11.33
2018-07-27T17:35:31.262Z,14.95
2018-07-27T17:38:00.821Z,14.15
2018-07-27T17:40:30.251Z,10.88
2018-07-27T17:42:59.552Z,10.13
2018-07-27T17:45:28.855Z,12.20
2018-07-27T17:47:57.960Z,14.18
2018-07-27T17:50:28.261Z,26.25
2018-07-27T17:52:58.963Z,34.20
2018-07-27T17:55:28.201Z,27.02
2018-07-27T17:57:57.496Z,21.33
2018-07-27T18:00:27.207Z,21.30
2018-07-27T18:02:56.832Z,33.83
2018-07-27T18:05:26.856Z,30.90
2018-07-27T18:07:56.509Z,21.82
2018-07-27T18:10:25.671Z,23.00
2018-07-27T18:12:55.097Z,19.00
2018-07-27T18:15:24.235Z,20.48
2018-07-27T18:17:53.676Z,18.95
2018-07-27T18:20:22.633Z,17.67
2018-07-27T18:22:51.994Z,22.77
2018-07-27T18:25:21.173Z,23.00
2018-07-27T18:27:50.406Z,26.68
2018-07-27T18:30:19.688Z,28.45
2018-07-27T18:32:48.360Z,29.37
2018-07-27T18:35:17.079Z,25.45
2018-07-27T18:37:46.065Z,23.02
2018-07-27T18:40:17.356Z,25.92
2018-07-27T18:42:46.710Z,21.48
2018-07-27T18:45:16.945Z,21.87
2018-07-27T18:47:46.368Z,25.33
2018-07-27T18:50:15.615Z,22.52
2018-07-27T18:52:44.709Z,18.23
2018-07-27T18:55:14.249Z,23.20
2018-07-27T18:57:43.450Z,23.70
2018-07-27T19:00:12.746Z,25.02
2018-07-27T19:02:41.982Z,28.83
2018-07-27T19:05:11.143Z,25.73
2018-07-27T19:07:40.543Z,26.42
2018-07-27T19:10:09.984Z,30.60
2018-07-27T19:12:38.884Z,25.52
2018-07-27T19:15:09.498Z,23.27
2018-07-27T19:17:39.197Z,22.40
2018-07-27T19:20:08.333Z,21.70
2018-07-27T19:22:37.805Z,20.40
2018-07-27T19:25:07.060Z,17.50
2018-07-27T19:27:36.452Z,15.77
2018-07-27T19:30:07.925Z,19.30
2018-07-27T19:32:37.040Z,18.13
2018-07-27T19:35:06.269Z,19.47
2018-07-27T19:37:35.560Z,23.37
2018-07-27T19:40:05.180Z,23.43
2018-07-27T19:42:34.292Z,23.40
2018-07-27T19:45:03.415Z,21.43
2018-07-27T19:47:33.365Z,23.33
2018-07-27T19:50:02.664Z,24.43
2018-07-27T19:52:32.353Z,24.07
2018-07-27T19:55:02.280Z,22.50
2018-07-27T19:57:31.513Z,23.57
2018-07-27T20:00:00.845Z,21.63
2018-07-27T20:02:29.941Z,19.17
2018-07-27T20:04:59.154Z,18.77
2018-07-27T20:07:28.226Z,19.13
2018-07-27T20:09:57.780Z,21.97
2018-07-27T20:12:26.821Z,20.43
2018-07-27T20:14:57.054Z,19.90
2018-07-27T20:17:26.381Z,18.30
2018-07-27T20:19:55.967Z,18.77
2018-07-27T20:22:25.373Z,20.23
2018-07-27T20:24:54.939Z,20.50
2018-07-27T20:27:24.267Z,21.60
2018-07-27T20:29:53.857Z,20.40
2018-07-27T20:32:24.498Z,40.00
2018-07-27T20:34:53.861Z,31.27
2018-07-27T20:37:23.369Z,31.27
2018-07-27T20:39:52.979Z,26.20
2018-07-27T20:42:22.303Z,28.73
2018-07-27T20:44:52.594Z,21.23
2018-07-27T20:47:21.830Z,23.27
2018-07-27T20:49:52.216Z,19.60
2018-07-27T20:52:21.362Z,21.63
2018-07-27T20:54:50.624Z,28.90
2018-07-27T20:57:19.724Z,22.97
2018-07-27T20:59:48.867Z,20.23
2018-07-27T21:02:17.963Z,22.43
2018-07-27T21:04:47.334Z,19.23
2018-07-27T21:07:16.795Z,27.67
2018-07-27T21:09:46.104Z,66.87
2018-07-27T21:12:15.410Z,37.07
2018-07-27T21:14:45.343Z,29.23
2018-07-27T21:17:14.808Z,32.60
2018-07-27T21:19:43.978Z,28.30
2018-07-27T21:22:13.158Z,24.37
2018-07-27T21:24:42.185Z,36.93
2018-07-27T21:27:11.378Z,26.17
2018-07-27T21:29:40.632Z,28.83
2018-07-27T21:32:09.784Z,32.53
2018-07-27T21:34:39.024Z,28.90
2018-07-27T21:37:08.132Z,26.87
2018-07-27T21:39:37.379Z,26.47
2018-07-27T21:42:06.570Z,22.50
2018-07-27T21:44:36.112Z,22.17
2018-07-27T21:47:05.117Z,24.23
2018-07-27T21:49:34.396Z,36.73
2018-07-27T21:52:03.735Z,30.30
2018-07-27T21:54:32.963Z,38.03
2018-07-27T21:57:02.227Z,31.10
2018-07-27T21:59:31.544Z,33.70
2018-07-27T22:02:00.891Z,30.93
2018-07-27T22:04:30.089Z,27.30
2018-07-27T22:06:59.264Z,33.20
2018-07-27T22:09:28.944Z,31.87
2018-07-27T22:11:58.297Z,21.37
2018-07-27T22:14:27.849Z,21.17
2018-07-27T22:16:57.552Z,23.37
2018-07-27T22:19:26.753Z,22.53
2018-07-27T22:21:56.111Z,23.47
2018-07-27T22:24:25.881Z,25.87
2018-07-27T22:26:54.940Z,24.07
2018-07-27T22:29:24.357Z,22.40
2018-07-27T22:31:53.771Z,20.03
2018-07-27T22:34:22.905Z,25.37
2018-07-27T22:36:52.427Z,24.60
2018-07-27T22:39:21.473Z,32.47
2018-07-27T22:41:50.708Z,30.03
2018-07-27T22:44:19.818Z,34.73
2018-07-27T22:46:48.595Z,27.17
2018-07-27T22:49:17.785Z,22.03
2018-07-27T22:51:47.058Z,20.20
2018-07-27T22:54:16.348Z,23.93
2018-07-27T22:56:45.517Z,38.87
2018-07-27T22:59:14.607Z,44.70
2018-07-27T23:01:43.784Z,32.10
2018-07-27T23:04:12.932Z,28.27
2018-07-27T23:06:42.236Z,54.80
2018-07-27T23:09:11.940Z,33.90
2018-07-27T23:11:40.591Z,37.03
2018-07-27T23:14:09.951Z,32.77
2018-07-27T23:16:39.142Z,28.63
2018-07-27T23:19:08.212Z,28.30
2018-07-27T23:21:37.248Z,27.40
2018-07-27T23:24:06.479Z,28.77
2018-07-27T23:26:35.700Z,28.33
2018-07-27T23:29:04.991Z,26.93
2018-07-27T23:31:34.196Z,29.87
2018-07-27T23:34:03.492Z,26.57
2018-07-27T23:36:32.792Z,28.07
2018-07-27T23:39:02.024Z,28.70
2018-07-27T23:41:31.415Z,26.67
2018-07-27T23:44:00.544Z,24.97
2018-07-27T23:46:29.831Z,27.07
2018-07-27T23:48:59.136Z,26.37
2018-07-27T23:51:28.341Z,23.27
2018-07-27T23:53:57.519Z,24.00
2018-07-27T23:56:26.723Z,25.13
2018-07-27T23:58:55.957Z,27.53
